sensor_id;sensor_type;location;lat;lon;timestamp;pressure;altitude;pressure_sealevel;temperature;humidity
6032;BME280;3044;43.232;27.972;2023-05-19T00:00:05;45092.88;;;-143.84;62.74
6032;BME280;3044;43.232;27.972;2023-05-19T00:02:34;45102.38;;;-143.84;62.72
6032;BME280;3044;43.232;27.972;2023-05-19T00:05:04;45104.28;;;-143.84;62.01
6032;BME280;3044;43.232;27.972;2023-05-19T00:07:32;45144.28;;;-143.84;61.52
6032;BME280;3044;43.232;27.972;2023-05-19T00:10:04;45117.63;;;-143.84;60.96
6032;BME280;3044;43.232;27.972;2023-05-19T00:12:32;45094.78;;;-143.84;60.53
6032;BME280;3044;43.232;27.972;2023-05-19T00:15:00;45111.91;;;-143.84;60.19
6032;BME280;3044;43.232;27.972;2023-05-19T00:17:27;45129.03;;;-143.84;60.18
6032;BME280;3044;43.232;27.972;2023-05-19T00:19:55;45117.63;;;-143.84;59.59
6032;BME280;3044;43.232;27.972;2023-05-19T00:22:22;45098.56;;;-143.84;59.77
6032;BME280;3044;43.232;27.972;2023-05-19T00:24:50;45106.19;;;-143.84;59.30
6032;BME280;3044;43.232;27.972;2023-05-19T00:27:17;45085.25;;;-143.84;59.21
6032;BME280;3044;43.232;27.972;2023-05-19T00:29:44;45123.34;;;-143.84;58.79
6032;BME280;3044;43.232;27.972;2023-05-19T00:32:11;45106.19;;;-143.84;58.93
6032;BME280;3044;43.232;27.972;2023-05-19T00:34:38;45130.94;;;-143.84;58.63
6032;BME280;3044;43.232;27.972;2023-05-19T00:37:07;45119.53;;;-143.84;58.99
6032;BME280;3044;43.232;27.972;2023-05-19T00:39:34;45096.66;;;-143.84;59.24
6032;BME280;3044;43.232;27.972;2023-05-19T00:42:01;45129.03;;;-143.84;59.61
6032;BME280;3044;43.232;27.972;2023-05-19T00:44:30;45115.72;;;-143.84;59.70
6032;BME280;3044;43.232;27.972;2023-05-19T00:46:57;45129.03;;;-143.84;59.77
6032;BME280;3044;43.232;27.972;2023-05-19T00:49:24;45106.19;;;-143.84;60.47
6032;BME280;3044;43.232;27.972;2023-05-19T00:51:52;45090.97;;;-143.84;60.63
6032;BME280;3044;43.232;27.972;2023-05-19T00:54:20;45098.56;;;-143.84;61.09
6032;BME280;3044;43.232;27.972;2023-05-19T00:56:47;45102.38;;;-143.84;60.93
6032;BME280;3044;43.232;27.972;2023-05-19T00:59:15;45123.34;;;-143.84;60.74
6032;BME280;3044;43.232;27.972;2023-05-19T01:01:42;45106.19;;;-143.84;60.72
6032;BME280;3044;43.232;27.972;2023-05-19T01:04:10;45140.47;;;-143.84;60.54
6032;BME280;3044;43.232;27.972;2023-05-19T01:06:41;45102.38;;;-143.84;60.38
6032;BME280;3044;43.232;27.972;2023-05-19T01:09:08;45117.63;;;-143.84;60.24
6032;BME280;3044;43.232;27.972;2023-05-19T01:11:37;45140.47;;;-143.84;60.31
6032;BME280;3044;43.232;27.972;2023-05-19T01:14:05;45129.03;;;-143.84;60.15
6032;BME280;3044;43.232;27.972;2023-05-19T01:16:35;45083.34;;;-143.84;59.76
6032;BME280;3044;43.232;27.972;2023-05-19T01:19:13;45106.19;;;-143.84;59.39
6032;BME280;3044;43.232;27.972;2023-05-19T01:22:10;45129.03;;;-143.84;59.13
6032;BME280;3044;43.232;27.972;2023-05-19T01:27:43;45108.09;;;-143.84;61.54
6032;BME280;3044;43.232;27.972;2023-05-19T01:30:26;45117.63;;;-143.84;62.83
6032;BME280;3044;43.232;27.972;2023-05-19T01:32:57;45106.19;;;-143.84;64.14
6032;BME280;3044;43.232;27.972;2023-05-19T01:35:25;45092.88;;;-143.84;65.59
6032;BME280;3044;43.232;27.972;2023-05-19T01:37:56;45110.00;;;-143.84;67.23
6032;BME280;3044;43.232;27.972;2023-05-19T01:40:24;45110.00;;;-143.84;67.72
6032;BME280;3044;43.232;27.972;2023-05-19T01:42:53;45115.72;;;-143.84;68.89
6032;BME280;3044;43.232;27.972;2023-05-19T01:45:21;45102.38;;;-143.84;69.93
6032;BME280;3044;43.232;27.972;2023-05-19T01:47:53;45106.19;;;-143.84;70.39
6032;BME280;3044;43.232;27.972;2023-05-19T01:50:20;45117.63;;;-143.84;71.30
6032;BME280;3044;43.232;27.972;2023-05-19T01:52:48;45115.72;;;-143.84;71.80
6032;BME280;3044;43.232;27.972;2023-05-19T01:55:15;45113.81;;;-143.84;72.35
6032;BME280;3044;43.232;27.972;2023-05-19T01:57:49;45096.66;;;-143.84;73.48
6032;BME280;3044;43.232;27.972;2023-05-19T02:00:28;45096.66;;;-143.84;73.56
6032;BME280;3044;43.232;27.972;2023-05-19T02:03:08;45098.56;;;-143.84;74.10
6032;BME280;3044;43.232;27.972;2023-05-19T02:05:54;45090.97;;;-143.84;74.53
6032;BME280;3044;43.232;27.972;2023-05-19T02:08:29;45090.97;;;-143.84;74.73
6032;BME280;3044;43.232;27.972;2023-05-19T02:11:02;45108.09;;;-143.84;74.80
6032;BME280;3044;43.232;27.972;2023-05-19T02:13:36;45102.38;;;-143.84;74.86
6032;BME280;3044;43.232;27.972;2023-05-19T02:16:04;45098.56;;;-143.84;74.69
6032;BME280;3044;43.232;27.972;2023-05-19T02:18:33;45096.66;;;-143.84;74.87
6032;BME280;3044;43.232;27.972;2023-05-19T02:21:01;45087.16;;;-143.84;74.92
6032;BME280;3044;43.232;27.972;2023-05-19T02:23:28;45106.19;;;-143.84;74.70
6032;BME280;3044;43.232;27.972;2023-05-19T02:25:55;45140.47;;;-143.84;74.69
6032;BME280;3044;43.232;27.972;2023-05-19T02:28:22;45098.56;;;-143.84;74.91
6032;BME280;3044;43.232;27.972;2023-05-19T02:30:52;45096.66;;;-143.84;74.72
6032;BME280;3044;43.232;27.972;2023-05-19T02:33:19;45079.53;;;-143.84;74.75
6032;BME280;3044;43.232;27.972;2023-05-19T02:35:50;45113.81;;;-143.84;74.67
6032;BME280;3044;43.232;27.972;2023-05-19T02:38:17;45106.19;;;-143.84;74.63
6032;BME280;3044;43.232;27.972;2023-05-19T02:40:45;45079.53;;;-143.84;74.78
6032;BME280;3044;43.232;27.972;2023-05-19T02:43:12;45081.44;;;-143.84;74.66
6032;BME280;3044;43.232;27.972;2023-05-19T02:45:40;45098.56;;;-143.84;74.31
6032;BME280;3044;43.232;27.972;2023-05-19T02:48:07;45130.94;;;-143.84;74.24
6032;BME280;3044;43.232;27.972;2023-05-19T02:50:34;45092.88;;;-143.84;74.09
6032;BME280;3044;43.232;27.972;2023-05-19T02:53:03;45110.00;;;-143.84;73.87
6032;BME280;3044;43.232;27.972;2023-05-19T02:55:30;45092.88;;;-143.84;73.64
6032;BME280;3044;43.232;27.972;2023-05-19T02:57:57;45113.81;;;-143.84;73.69
6032;BME280;3044;43.232;27.972;2023-05-19T03:00:24;45094.78;;;-143.84;73.45
6032;BME280;3044;43.232;27.972;2023-05-19T03:02:51;45092.88;;;-143.84;73.19
6032;BME280;3044;43.232;27.972;2023-05-19T03:05:18;45111.91;;;-143.84;73.08
6032;BME280;3044;43.232;27.972;2023-05-19T03:07:45;45104.28;;;-143.84;72.83
6032;BME280;3044;43.232;27.972;2023-05-19T03:10:14;45102.38;;;-143.84;72.69
6032;BME280;3044;43.232;27.972;2023-05-19T03:12:41;45130.94;;;-143.84;72.25
6032;BME280;3044;43.232;27.972;2023-05-19T03:15:09;45094.78;;;-143.84;72.16
6032;BME280;3044;43.232;27.972;2023-05-19T03:17:37;45106.19;;;-143.84;71.92
6032;BME280;3044;43.232;27.972;2023-05-19T03:20:06;45106.19;;;-143.84;71.38
6032;BME280;3044;43.232;27.972;2023-05-19T03:22:35;45083.34;;;-143.84;70.48
6032;BME280;3044;43.232;27.972;2023-05-19T03:25:02;45108.09;;;-143.84;69.51
6032;BME280;3044;43.232;27.972;2023-05-19T03:27:31;45085.25;;;-143.84;68.76
6032;BME280;3044;43.232;27.972;2023-05-19T03:29:58;45090.97;;;-143.84;68.85
6032;BME280;3044;43.232;27.972;2023-05-19T03:32:25;45106.19;;;-143.84;69.05
6032;BME280;3044;43.232;27.972;2023-05-19T03:34:52;45104.28;;;-143.84;68.52
6032;BME280;3044;43.232;27.972;2023-05-19T03:37:19;45098.56;;;-143.84;67.47
6032;BME280;3044;43.232;27.972;2023-05-19T03:39:46;45094.78;;;-143.84;66.63
6032;BME280;3044;43.232;27.972;2023-05-19T03:42:13;45094.78;;;-143.84;65.39
6032;BME280;3044;43.232;27.972;2023-05-19T03:44:42;45092.88;;;-143.84;64.14
6032;BME280;3044;43.232;27.972;2023-05-19T03:47:09;45089.06;;;-143.84;62.41
6032;BME280;3044;43.232;27.972;2023-05-19T03:49:36;45094.78;;;-143.84;60.44
6032;BME280;3044;43.232;27.972;2023-05-19T03:52:03;45077.63;;;-143.84;58.64
6032;BME280;3044;43.232;27.972;2023-05-19T03:54:31;45089.06;;;-143.84;58.20
6032;BME280;3044;43.232;27.972;2023-05-19T03:56:58;45070.00;;;-143.84;57.39
6032;BME280;3044;43.232;27.972;2023-05-19T03:59:25;45087.16;;;-143.84;56.84
6032;BME280;3044;43.232;27.972;2023-05-19T04:01:53;45073.81;;;-143.84;55.43
6032;BME280;3044;43.232;27.972;2023-05-19T04:04:21;45096.66;;;-143.84;54.16
6032;BME280;3044;43.232;27.972;2023-05-19T04:06:48;45081.44;;;-143.84;54.01
6032;BME280;3044;43.232;27.972;2023-05-19T04:09:15;45041.44;;;-143.84;53.57
6032;BME280;3044;43.232;27.972;2023-05-19T04:11:43;45062.41;;;-143.84;52.14
6032;BME280;3044;43.232;27.972;2023-05-19T04:14:11;45075.72;;;-143.84;51.90
6032;BME280;3044;43.232;27.972;2023-05-19T04:16:38;45079.53;;;-143.84;51.03
6032;BME280;3044;43.232;27.972;2023-05-19T04:19:07;45096.66;;;-143.84;50.53
6032;BME280;3044;43.232;27.972;2023-05-19T04:21:34;45056.69;;;-143.84;50.04
6032;BME280;3044;43.232;27.972;2023-05-19T04:24:01;45083.34;;;-143.84;49.13
6032;BME280;3044;43.232;27.972;2023-05-19T04:26:31;45041.44;;;-143.84;49.59
6032;BME280;3044;43.232;27.972;2023-05-19T04:28:59;45052.88;;;-143.84;48.93
6032;BME280;3044;43.232;27.972;2023-05-19T04:31:26;45037.66;;;-143.84;48.73
6032;BME280;3044;43.232;27.972;2023-05-19T04:33:54;45090.97;;;-143.84;47.97
6032;BME280;3044;43.232;27.972;2023-05-19T04:36:22;45081.44;;;-143.84;48.20
6032;BME280;3044;43.232;27.972;2023-05-19T04:38:50;45056.69;;;-143.84;47.97
6032;BME280;3044;43.232;27.972;2023-05-19T04:41:19;45070.00;;;-143.84;47.40
6032;BME280;3044;43.232;27.972;2023-05-19T04:43:47;45079.53;;;-143.84;46.84
6032;BME280;3044;43.232;27.972;2023-05-19T04:46:14;45035.75;;;-143.84;47.13
6032;BME280;3044;43.232;27.972;2023-05-19T04:48:41;45054.78;;;-143.84;46.36
6032;BME280;3044;43.232;27.972;2023-05-19T04:51:09;45064.31;;;-143.84;46.42
6032;BME280;3044;43.232;27.972;2023-05-19T04:53:41;45064.31;;;-143.84;46.66
6032;BME280;3044;43.232;27.972;2023-05-19T04:56:08;45075.72;;;-143.84;47.02
6032;BME280;3044;43.232;27.972;2023-05-19T04:58:38;45039.53;;;-143.84;47.08
6032;BME280;3044;43.232;27.972;2023-05-19T05:01:06;45054.78;;;-143.84;47.26
6032;BME280;3044;43.232;27.972;2023-05-19T05:03:34;45085.25;;;-143.84;47.82
6032;BME280;3044;43.232;27.972;2023-05-19T05:06:01;45052.88;;;-143.84;48.71
6032;BME280;3044;43.232;27.972;2023-05-19T05:08:29;45047.16;;;-143.84;48.80
6032;BME280;3044;43.232;27.972;2023-05-19T05:10:58;45087.16;;;-143.84;49.62
6032;BME280;3044;43.232;27.972;2023-05-19T05:13:26;45079.53;;;-143.84;50.33
6032;BME280;3044;43.232;27.972;2023-05-19T05:15:54;45087.16;;;-143.84;50.05
6032;BME280;3044;43.232;27.972;2023-05-19T05:18:21;45073.81;;;-143.84;49.80
6032;BME280;3044;43.232;27.972;2023-05-19T05:20:49;45071.91;;;-143.84;49.58
6032;BME280;3044;43.232;27.972;2023-05-19T05:23:17;45062.41;;;-143.84;48.83
6032;BME280;3044;43.232;27.972;2023-05-19T05:25:46;45066.22;;;-143.84;49.01
6032;BME280;3044;43.232;27.972;2023-05-19T05:28:15;45071.91;;;-143.84;48.42
6032;BME280;3044;43.232;27.972;2023-05-19T05:30:42;45071.91;;;-143.84;48.08
6032;BME280;3044;43.232;27.972;2023-05-19T05:33:09;45079.53;;;-143.84;47.82
6032;BME280;3044;43.232;27.972;2023-05-19T05:35:37;45075.72;;;-143.84;47.66
6032;BME280;3044;43.232;27.972;2023-05-19T05:38:04;45077.63;;;-143.84;47.29
6032;BME280;3044;43.232;27.972;2023-05-19T05:40:31;45073.81;;;-143.84;46.49
6032;BME280;3044;43.232;27.972;2023-05-19T05:42:58;45047.16;;;-143.84;45.89
6032;BME280;3044;43.232;27.972;2023-05-19T05:45:27;45060.50;;;-143.84;44.96
6032;BME280;3044;43.232;27.972;2023-05-19T05:47:54;45056.69;;;-143.84;43.87
6032;BME280;3044;43.232;27.972;2023-05-19T05:50:22;45049.06;;;-143.84;43.51
6032;BME280;3044;43.232;27.972;2023-05-19T05:52:50;45031.94;;;-143.84;42.84
6032;BME280;3044;43.232;27.972;2023-05-19T05:55:19;45045.25;;;-143.84;42.35
6032;BME280;3044;43.232;27.972;2023-05-19T05:57:48;45031.94;;;-143.84;41.41
6032;BME280;3044;43.232;27.972;2023-05-19T06:00:17;45018.59;;;-143.84;40.80
6032;BME280;3044;43.232;27.972;2023-05-19T06:02:48;45062.41;;;-143.84;39.85
6032;BME280;3044;43.232;27.972;2023-05-19T06:05:15;45037.66;;;-143.84;39.93
6032;BME280;3044;43.232;27.972;2023-05-19T06:07:42;45039.53;;;-143.84;39.29
6032;BME280;3044;43.232;27.972;2023-05-19T06:10:10;45041.44;;;-143.84;38.98
6032;BME280;3044;43.232;27.972;2023-05-19T06:12:37;45018.59;;;-143.84;38.75
6032;BME280;3044;43.232;27.972;2023-05-19T06:15:05;45016.69;;;-143.84;38.23
6032;BME280;3044;43.232;27.972;2023-05-19T06:17:33;45024.31;;;-143.84;38.20
6032;BME280;3044;43.232;27.972;2023-05-19T06:20:02;45010.97;;;-143.84;37.58
6032;BME280;3044;43.232;27.972;2023-05-19T06:22:30;45030.03;;;-143.84;37.27
6032;BME280;3044;43.232;27.972;2023-05-19T06:24:58;45020.50;;;-143.84;36.87
6032;BME280;3044;43.232;27.972;2023-05-19T06:27:25;45009.09;;;-143.84;37.24
6032;BME280;3044;43.232;27.972;2023-05-19T06:29:52;45014.78;;;-143.84;37.12
6032;BME280;3044;43.232;27.972;2023-05-19T06:32:19;45007.19;;;-143.84;37.11
6032;BME280;3044;43.232;27.972;2023-05-19T06:34:46;45022.41;;;-143.84;37.20
6032;BME280;3044;43.232;27.972;2023-05-19T06:37:21;44997.66;;;-143.84;37.44
6032;BME280;3044;43.232;27.972;2023-05-19T06:39:48;45024.31;;;-143.84;37.21
6032;BME280;3044;43.232;27.972;2023-05-19T06:42:17;45022.41;;;-143.84;37.47
6032;BME280;3044;43.232;27.972;2023-05-19T06:44:47;45005.28;;;-143.84;36.90
6032;BME280;3044;43.232;27.972;2023-05-19T06:47:14;44997.66;;;-143.84;36.39
6032;BME280;3044;43.232;27.972;2023-05-19T06:49:42;44993.84;;;-143.84;36.95
6032;BME280;3044;43.232;27.972;2023-05-19T06:52:09;45012.88;;;-143.84;36.14
6032;BME280;3044;43.232;27.972;2023-05-19T06:54:37;44990.03;;;-143.84;36.54
6032;BME280;3044;43.232;27.972;2023-05-19T06:57:05;44995.75;;;-143.84;36.99
6032;BME280;3044;43.232;27.972;2023-05-19T06:59:32;44990.03;;;-143.84;36.07
6032;BME280;3044;43.232;27.972;2023-05-19T07:01:59;44993.84;;;-143.84;35.87
6032;BME280;3044;43.232;27.972;2023-05-19T07:04:26;44984.31;;;-143.84;36.07
6032;BME280;3044;43.232;27.972;2023-05-19T07:06:56;45005.28;;;-143.84;35.69
6032;BME280;3044;43.232;27.972;2023-05-19T07:09:24;45003.38;;;-143.84;35.25
6032;BME280;3044;43.232;27.972;2023-05-19T07:11:52;45010.97;;;-143.84;36.09
6032;BME280;3044;43.232;27.972;2023-05-19T07:14:20;44988.13;;;-143.84;35.78
6032;BME280;3044;43.232;27.972;2023-05-19T07:16:48;45003.38;;;-143.84;35.56
6032;BME280;3044;43.232;27.972;2023-05-19T07:19:15;44980.53;;;-143.84;35.79
6032;BME280;3044;43.232;27.972;2023-05-19T07:21:44;45003.38;;;-143.84;35.19
6032;BME280;3044;43.232;27.972;2023-05-19T07:24:11;45007.19;;;-143.84;34.63
6032;BME280;3044;43.232;27.972;2023-05-19T07:26:38;44976.72;;;-143.84;35.08
6032;BME280;3044;43.232;27.972;2023-05-19T07:29:07;44991.94;;;-143.84;35.53
6032;BME280;3044;43.232;27.972;2023-05-19T07:31:47;44993.84;;;-143.84;34.92
6032;BME280;3044;43.232;27.972;2023-05-19T07:34:18;44984.31;;;-143.84;33.91
6032;BME280;3044;43.232;27.972;2023-05-19T07:36:46;44955.75;;;-143.84;33.54
6032;BME280;3044;43.232;27.972;2023-05-19T07:39:13;44976.72;;;-143.84;33.44
6032;BME280;3044;43.232;27.972;2023-05-19T07:58:59;44944.34;;;-143.84;32.78
6032;BME280;3044;43.232;27.972;2023-05-19T08:01:26;44957.66;;;-143.84;33.46
6032;BME280;3044;43.232;27.972;2023-05-19T08:03:53;44978.63;;;-143.84;33.65
6032;BME280;3044;43.232;27.972;2023-05-19T08:06:20;44944.34;;;-143.84;33.11
6032;BME280;3044;43.232;27.972;2023-05-19T08:08:47;44940.53;;;-143.84;33.04
6032;BME280;3044;43.232;27.972;2023-05-19T08:11:15;44967.19;;;-143.84;33.17
6032;BME280;3044;43.232;27.972;2023-05-19T08:13:42;44963.38;;;-143.84;33.35
6032;BME280;3044;43.232;27.972;2023-05-19T08:16:13;44980.53;;;-143.84;33.74
6032;BME280;3044;43.232;27.972;2023-05-19T08:18:40;44959.56;;;-143.84;34.48
6032;BME280;3044;43.232;27.972;2023-05-19T08:21:07;44934.81;;;-143.84;33.28
6032;BME280;3044;43.232;27.972;2023-05-19T08:23:35;44972.91;;;-143.84;34.26
6032;BME280;3044;43.232;27.972;2023-05-19T08:26:03;44988.13;;;-143.84;33.94
6032;BME280;3044;43.232;27.972;2023-05-19T08:28:30;44984.31;;;-143.84;34.05
6032;BME280;3044;43.232;27.972;2023-05-19T08:30:57;44978.63;;;-143.84;34.04
6032;BME280;3044;43.232;27.972;2023-05-19T08:33:26;44982.41;;;-143.84;34.52
6032;BME280;3044;43.232;27.972;2023-05-19T08:35:54;44988.13;;;-143.84;34.54
6032;BME280;3044;43.232;27.972;2023-05-19T08:38:24;45003.38;;;-143.84;34.54
6032;BME280;3044;43.232;27.972;2023-05-19T08:40:51;44959.56;;;-143.84;34.56
6032;BME280;3044;43.232;27.972;2023-05-19T08:43:18;44971.00;;;-143.84;34.25
6032;BME280;3044;43.232;27.972;2023-05-19T08:45:45;44932.91;;;-143.84;33.55
6032;BME280;3044;43.232;27.972;2023-05-19T08:48:13;44951.97;;;-143.84;33.09
6032;BME280;3044;43.232;27.972;2023-05-19T08:50:51;44955.75;;;-143.84;33.14
6032;BME280;3044;43.232;27.972;2023-05-19T08:53:25;44940.53;;;-143.84;34.02
6032;BME280;3044;43.232;27.972;2023-05-19T08:55:57;44963.38;;;-143.84;32.77
6032;BME280;3044;43.232;27.972;2023-05-19T08:58:27;44940.53;;;-143.84;32.49
6032;BME280;3044;43.232;27.972;2023-05-19T09:00:55;44936.72;;;-143.84;33.69
6032;BME280;3044;43.232;27.972;2023-05-19T09:03:24;44957.66;;;-143.84;33.12
6032;BME280;3044;43.232;27.972;2023-05-19T09:05:52;44955.75;;;-143.84;32.92
6032;BME280;3044;43.232;27.972;2023-05-19T09:08:20;44950.06;;;-143.84;32.24
6032;BME280;3044;43.232;27.972;2023-05-19T09:10:47;44938.63;;;-143.84;32.59
6032;BME280;3044;43.232;27.972;2023-05-19T09:13:14;44948.16;;;-143.84;32.97
6032;BME280;3044;43.232;27.972;2023-05-19T09:15:41;44965.28;;;-143.84;33.87
6032;BME280;3044;43.232;27.972;2023-05-19T09:18:11;44927.19;;;-143.84;32.88
6032;BME280;3044;43.232;27.972;2023-05-19T09:20:40;44969.09;;;-143.84;33.51
6032;BME280;3044;43.232;27.972;2023-05-19T09:23:11;44953.88;;;-143.84;34.08
6032;BME280;3044;43.232;27.972;2023-05-19T09:25:46;44957.66;;;-143.84;33.75
6032;BME280;3044;43.232;27.972;2023-05-19T09:28:13;44978.63;;;-143.84;34.21
6032;BME280;3044;43.232;27.972;2023-05-19T09:30:40;44986.22;;;-143.84;34.38
6032;BME280;3044;43.232;27.972;2023-05-19T09:33:08;44932.91;;;-143.84;34.09
6032;BME280;3044;43.232;27.972;2023-05-19T09:35:35;44959.56;;;-143.84;34.74
6032;BME280;3044;43.232;27.972;2023-05-19T09:38:02;44959.56;;;-143.84;34.53
6032;BME280;3044;43.232;27.972;2023-05-19T09:40:32;44950.06;;;-143.84;34.32
6032;BME280;3044;43.232;27.972;2023-05-19T09:43:04;44988.13;;;-143.84;34.73
6032;BME280;3044;43.232;27.972;2023-05-19T09:45:31;44967.19;;;-143.84;35.05
6032;BME280;3044;43.232;27.972;2023-05-19T09:48:02;44969.09;;;-143.84;35.53
6032;BME280;3044;43.232;27.972;2023-05-19T09:50:31;44972.91;;;-143.84;35.28
6032;BME280;3044;43.232;27.972;2023-05-19T09:52:58;44974.81;;;-143.84;35.46
6032;BME280;3044;43.232;27.972;2023-05-19T09:55:27;44984.31;;;-143.84;36.77
6032;BME280;3044;43.232;27.972;2023-05-19T09:57:56;44990.03;;;-143.84;35.90
6032;BME280;3044;43.232;27.972;2023-05-19T10:00:25;45003.38;;;-143.84;36.25
6032;BME280;3044;43.232;27.972;2023-05-19T10:02:53;44974.81;;;-143.84;36.17
6032;BME280;3044;43.232;27.972;2023-05-19T10:05:22;44997.66;;;-143.84;36.02
6032;BME280;3044;43.232;27.972;2023-05-19T10:07:51;44982.41;;;-143.84;36.66
6032;BME280;3044;43.232;27.972;2023-05-19T10:10:20;44980.53;;;-143.84;36.32
6032;BME280;3044;43.232;27.972;2023-05-19T10:12:48;44990.03;;;-143.84;38.09
6032;BME280;3044;43.232;27.972;2023-05-19T10:15:18;44991.94;;;-143.84;35.29
6032;BME280;3044;43.232;27.972;2023-05-19T10:17:45;44993.84;;;-143.84;36.81
6032;BME280;3044;43.232;27.972;2023-05-19T10:20:13;44948.16;;;-143.84;36.10
6032;BME280;3044;43.232;27.972;2023-05-19T10:22:42;44991.94;;;-143.84;35.82
6032;BME280;3044;43.232;27.972;2023-05-19T10:25:10;44959.56;;;-143.84;36.39
6032;BME280;3044;43.232;27.972;2023-05-19T10:27:41;44991.94;;;-143.84;35.24
6032;BME280;3044;43.232;27.972;2023-05-19T10:30:13;44995.75;;;-143.84;35.38
6032;BME280;3044;43.232;27.972;2023-05-19T10:32:43;44971.00;;;-143.84;35.37
6032;BME280;3044;43.232;27.972;2023-05-19T10:35:27;44988.13;;;-143.84;35.00
6032;BME280;3044;43.232;27.972;2023-05-19T10:38:11;44969.09;;;-143.84;34.59
6032;BME280;3044;43.232;27.972;2023-05-19T10:40:52;44990.03;;;-143.84;34.88
6032;BME280;3044;43.232;27.972;2023-05-19T10:43:27;44984.31;;;-143.84;34.27
6032;BME280;3044;43.232;27.972;2023-05-19T10:45:56;44990.03;;;-143.84;34.89
6032;BME280;3044;43.232;27.972;2023-05-19T10:48:25;44974.81;;;-143.84;35.16
6032;BME280;3044;43.232;27.972;2023-05-19T10:50:52;44980.53;;;-143.84;33.98
6032;BME280;3044;43.232;27.972;2023-05-19T10:53:20;44972.91;;;-143.84;34.29
6032;BME280;3044;43.232;27.972;2023-05-19T10:55:52;44965.28;;;-143.84;34.42
6032;BME280;3044;43.232;27.972;2023-05-19T10:58:37;44982.41;;;-143.84;34.39
6032;BME280;3044;43.232;27.972;2023-05-19T11:01:07;44961.47;;;-143.84;34.44
6032;BME280;3044;43.232;27.972;2023-05-19T11:03:50;44995.75;;;-143.84;33.46
6032;BME280;3044;43.232;27.972;2023-05-19T11:06:25;44991.94;;;-143.84;35.15
6032;BME280;3044;43.232;27.972;2023-05-19T11:08:57;44971.00;;;-143.84;33.38
6032;BME280;3044;43.232;27.972;2023-05-19T11:11:25;44999.56;;;-143.84;33.77
6032;BME280;3044;43.232;27.972;2023-05-19T11:13:53;44969.09;;;-143.84;34.25
6032;BME280;3044;43.232;27.972;2023-05-19T11:16:27;44980.53;;;-143.84;33.90
6032;BME280;3044;43.232;27.972;2023-05-19T11:18:58;44978.63;;;-143.84;33.58
6032;BME280;3044;43.232;27.972;2023-05-19T11:21:40;44988.13;;;-143.84;33.80
6032;BME280;3044;43.232;27.972;2023-05-19T11:24:07;44974.81;;;-143.84;33.54
6032;BME280;3044;43.232;27.972;2023-05-19T11:26:41;45005.28;;;-143.84;34.05
6032;BME280;3044;43.232;27.972;2023-05-19T11:29:09;44986.22;;;-143.84;33.27
6032;BME280;3044;43.232;27.972;2023-05-19T11:31:36;44991.94;;;-143.84;33.04
6032;BME280;3044;43.232;27.972;2023-05-19T11:34:07;44997.66;;;-143.84;33.90
6032;BME280;3044;43.232;27.972;2023-05-19T11:36:36;44982.41;;;-143.84;33.00
6032;BME280;3044;43.232;27.972;2023-05-19T11:39:05;44982.41;;;-143.84;33.44
6032;BME280;3044;43.232;27.972;2023-05-19T11:41:37;44946.25;;;-143.84;31.95
6032;BME280;3044;43.232;27.972;2023-05-19T11:44:08;44976.72;;;-143.84;32.32
6032;BME280;3044;43.232;27.972;2023-05-19T11:46:36;44959.56;;;-143.84;31.83
6032;BME280;3044;43.232;27.972;2023-05-19T11:49:04;44980.53;;;-143.84;31.94
6032;BME280;3044;43.232;27.972;2023-05-19T11:51:32;44957.66;;;-143.84;31.85
6032;BME280;3044;43.232;27.972;2023-05-19T11:53:59;44976.72;;;-143.84;32.07
6032;BME280;3044;43.232;27.972;2023-05-19T11:56:32;44986.22;;;-143.84;32.40
6032;BME280;3044;43.232;27.972;2023-05-19T11:59:00;44955.75;;;-143.84;32.72
6032;BME280;3044;43.232;27.972;2023-05-19T12:01:27;44991.94;;;-143.84;33.39
6032;BME280;3044;43.232;27.972;2023-05-19T12:03:56;44942.44;;;-143.84;32.69
6032;BME280;3044;43.232;27.972;2023-05-19T12:06:24;44978.63;;;-143.84;32.53
6032;BME280;3044;43.232;27.972;2023-05-19T12:08:53;44972.91;;;-143.84;32.38
6032;BME280;3044;43.232;27.972;2023-05-19T12:11:22;44988.13;;;-143.84;31.55
6032;BME280;3044;43.232;27.972;2023-05-19T12:13:49;44967.19;;;-143.84;31.94
6032;BME280;3044;43.232;27.972;2023-05-19T12:16:19;44976.72;;;-143.84;31.48
6032;BME280;3044;43.232;27.972;2023-05-19T12:18:46;44972.91;;;-143.84;31.76
6032;BME280;3044;43.232;27.972;2023-05-19T12:21:13;44969.09;;;-143.84;32.20
6032;BME280;3044;43.232;27.972;2023-05-19T12:23:41;44942.44;;;-143.84;32.82
6032;BME280;3044;43.232;27.972;2023-05-19T12:26:10;44969.09;;;-143.84;33.55
6032;BME280;3044;43.232;27.972;2023-05-19T12:28:37;44971.00;;;-143.84;32.85
6032;BME280;3044;43.232;27.972;2023-05-19T12:31:05;44986.22;;;-143.84;32.80
6032;BME280;3044;43.232;27.972;2023-05-19T12:33:32;44980.53;;;-143.84;32.29
6032;BME280;3044;43.232;27.972;2023-05-19T12:36:00;44990.03;;;-143.84;32.10
6032;BME280;3044;43.232;27.972;2023-05-19T12:38:27;44990.03;;;-143.84;31.86
6032;BME280;3044;43.232;27.972;2023-05-19T12:40:57;44993.84;;;-143.84;32.15
6032;BME280;3044;43.232;27.972;2023-05-19T12:43:26;44965.28;;;-143.84;32.00
6032;BME280;3044;43.232;27.972;2023-05-19T12:45:53;44990.03;;;-143.84;32.42
6032;BME280;3044;43.232;27.972;2023-05-19T12:48:21;44988.13;;;-143.84;32.54
6032;BME280;3044;43.232;27.972;2023-05-19T12:50:50;44993.84;;;-143.84;32.57
6032;BME280;3044;43.232;27.972;2023-05-19T12:53:17;44993.84;;;-143.84;32.63
6032;BME280;3044;43.232;27.972;2023-05-19T12:55:44;44976.72;;;-143.84;32.22
6032;BME280;3044;43.232;27.972;2023-05-19T12:58:13;44988.13;;;-143.84;32.48
6032;BME280;3044;43.232;27.972;2023-05-19T13:00:43;44969.09;;;-143.84;32.49
6032;BME280;3044;43.232;27.972;2023-05-19T13:03:14;44955.75;;;-143.84;31.89
6032;BME280;3044;43.232;27.972;2023-05-19T13:05:42;44990.03;;;-143.84;31.94
6032;BME280;3044;43.232;27.972;2023-05-19T13:08:11;44984.31;;;-143.84;32.31
6032;BME280;3044;43.232;27.972;2023-05-19T13:10:40;44965.28;;;-143.84;31.66
6032;BME280;3044;43.232;27.972;2023-05-19T13:13:08;44978.63;;;-143.84;32.15
6032;BME280;3044;43.232;27.972;2023-05-19T13:15:37;44969.09;;;-143.84;32.92
6032;BME280;3044;43.232;27.972;2023-05-19T13:18:08;45005.28;;;-143.84;33.06